createdAt,value
2023-09-20T00:02:15.414Z,79.00
2023-09-20T00:04:44.516Z,78.90
2023-09-20T00:07:13.557Z,79.00
2023-09-20T00:09:43.509Z,78.90
2023-09-20T00:12:12.030Z,78.90
2023-09-20T00:14:40.141Z,78.90
2023-09-20T00:17:08.295Z,78.90
2023-09-20T00:19:39.312Z,78.90
2023-09-20T00:22:08.701Z,78.80
2023-09-20T00:24:36.851Z,78.70
2023-09-20T00:27:06.404Z,78.80
2023-09-20T00:29:34.762Z,78.80
2023-09-20T00:32:02.765Z,78.80
2023-09-20T00:34:32.584Z,78.80
2023-09-20T00:37:00.375Z,78.80
2023-09-20T00:39:28.334Z,78.80
2023-09-20T00:41:56.182Z,78.80
2023-09-20T00:44:26.534Z,78.90
2023-09-20T00:46:55.665Z,78.90
2023-09-20T00:49:24.067Z,78.80
2023-09-20T00:51:52.378Z,78.70
2023-09-20T00:54:20.220Z,78.70
2023-09-20T00:56:48.312Z,78.80
2023-09-20T00:59:17.410Z,78.80
2023-09-20T01:01:46.620Z,78.80
2023-09-20T01:04:16.114Z,78.90
2023-09-20T01:06:47.555Z,78.70
2023-09-20T01:09:15.880Z,78.70
2023-09-20T01:11:45.189Z,78.70
2023-09-20T01:14:13.398Z,78.70
2023-09-20T01:16:42.270Z,78.70
2023-09-20T01:19:11.515Z,78.80
2023-09-20T01:21:44.137Z,78.90
2023-09-20T01:24:13.587Z,78.90
2023-09-20T01:26:42.772Z,78.90
2023-09-20T01:29:13.459Z,78.90
2023-09-20T01:31:42.260Z,78.90
2023-09-20T01:34:10.566Z,78.90
2023-09-20T01:36:45.848Z,79.00
2023-09-20T01:39:17.778Z,78.90
2023-09-20T01:41:47.484Z,79.00
2023-09-20T01:44:16.253Z,78.80
2023-09-20T01:46:44.555Z,78.80
2023-09-20T01:49:13.467Z,78.80
2023-09-20T01:51:41.413Z,78.80
2023-09-20T01:54:09.372Z,78.80
2023-09-20T01:56:38.630Z,78.90
2023-09-20T01:59:07.671Z,78.80
2023-09-20T02:01:39.000Z,79.00
2023-09-20T02:04:07.975Z,79.00
2023-09-20T02:06:38.887Z,79.00
2023-09-20T02:09:07.048Z,79.70
2023-09-20T02:11:35.097Z,79.00
2023-09-20T02:14:04.487Z,79.00
2023-09-20T02:16:33.862Z,78.90
2023-09-20T02:19:01.906Z,79.00
2023-09-20T02:21:30.037Z,79.00
2023-09-20T02:23:59.418Z,79.10
2023-09-20T02:26:27.488Z,78.90
2023-09-20T02:28:56.763Z,79.00
2023-09-20T02:31:26.018Z,79.00
2023-09-20T02:33:55.222Z,79.10
2023-09-20T02:36:23.200Z,79.00
2023-09-20T02:38:53.733Z,79.00
2023-09-20T02:41:22.019Z,79.00
2023-09-20T02:43:54.397Z,79.10
2023-09-20T02:46:24.125Z,79.00
2023-09-20T02:48:56.201Z,79.10
2023-09-20T02:51:26.098Z,79.10
2023-09-20T02:53:54.535Z,79.00
2023-09-20T02:56:22.509Z,79.00
2023-09-20T02:58:50.597Z,79.10
2023-09-20T03:01:18.730Z,79.10
2023-09-20T03:03:47.117Z,79.00
2023-09-20T03:06:17.447Z,79.00
2023-09-20T03:08:46.275Z,79.20
2023-09-20T03:11:22.497Z,79.10
2023-09-20T03:13:52.660Z,79.10
2023-09-20T03:16:20.984Z,79.80
2023-09-20T03:18:51.520Z,79.10
2023-09-20T03:21:22.200Z,79.10
2023-09-20T03:23:51.242Z,79.10
2023-09-20T03:26:19.545Z,79.10
2023-09-20T03:28:49.819Z,79.20
2023-09-20T03:31:19.855Z,79.10
2023-09-20T03:33:49.246Z,79.20
2023-09-20T03:36:17.551Z,79.10
2023-09-20T03:38:47.242Z,79.10
2023-09-20T03:41:15.413Z,79.10
2023-09-20T03:43:43.349Z,79.30
2023-09-20T03:46:11.237Z,79.20
2023-09-20T03:48:39.561Z,79.10
2023-09-20T03:51:08.566Z,79.20
2023-09-20T03:53:38.908Z,79.20
2023-09-20T03:56:10.177Z,79.20
2023-09-20T03:58:37.993Z,79.30
2023-09-20T04:01:06.563Z,79.20
2023-09-20T04:03:36.015Z,79.20
2023-09-20T04:06:04.322Z,79.30
2023-09-20T04:08:32.303Z,79.20
2023-09-20T04:11:00.177Z,79.20
2023-09-20T04:13:29.469Z,79.20
2023-09-20T04:15:57.604Z,79.20
2023-09-20T04:18:27.453Z,79.20
2023-09-20T04:20:55.527Z,79.30
2023-09-20T04:23:23.495Z,79.20
2023-09-20T04:25:52.984Z,79.30
2023-09-20T04:28:20.814Z,79.20
2023-09-20T04:30:50.210Z,79.20
2023-09-20T04:33:18.426Z,79.30
2023-09-20T04:35:48.966Z,79.30
2023-09-20T04:38:16.968Z,79.20
2023-09-20T04:40:44.952Z,79.20
2023-09-20T04:43:14.195Z,79.20
2023-09-20T04:45:43.916Z,79.20
2023-09-20T04:48:14.267Z,79.20
2023-09-20T04:50:42.307Z,79.20
2023-09-20T04:53:11.148Z,79.20
2023-09-20T04:55:39.236Z,79.20
2023-09-20T04:58:07.456Z,79.20
2023-09-20T05:00:38.401Z,79.20
2023-09-20T05:03:07.329Z,79.20
2023-09-20T05:05:36.880Z,79.20
2023-09-20T05:08:06.112Z,79.20
2023-09-20T05:10:34.253Z,79.20
2023-09-20T05:13:04.764Z,79.20
2023-09-20T05:15:33.167Z,79.20
2023-09-20T05:18:01.361Z,79.20
2023-09-20T05:20:30.652Z,79.20
2023-09-20T05:23:00.262Z,79.20
2023-09-20T05:25:28.526Z,79.20
2023-09-20T05:27:56.419Z,79.20
2023-09-20T05:30:26.188Z,79.20
2023-09-20T05:32:54.646Z,79.20
2023-09-20T05:35:22.761Z,79.20
2023-09-20T05:37:50.882Z,78.50
2023-09-20T05:40:22.417Z,79.20
2023-09-20T05:42:52.760Z,79.10
2023-09-20T05:45:21.620Z,79.20
2023-09-20T05:47:50.832Z,79.10
2023-09-20T05:50:19.029Z,79.10
2023-09-20T05:52:46.945Z,79.10
2023-09-20T05:55:15.774Z,79.00
2023-09-20T05:57:46.097Z,79.10
2023-09-20T06:00:22.702Z,79.20
2023-09-20T06:02:51.840Z,79.20
2023-09-20T06:05:20.736Z,79.20
2023-09-20T06:07:48.621Z,79.30
2023-09-20T06:10:18.551Z,79.20
2023-09-20T06:12:47.937Z,79.20
2023-09-20T06:15:16.499Z,79.20
2023-09-20T06:17:45.071Z,79.20
2023-09-20T06:20:14.612Z,79.20
2023-09-20T06:22:42.523Z,79.20
2023-09-20T06:25:12.960Z,79.30
2023-09-20T06:27:41.279Z,79.30
2023-09-20T06:30:13.880Z,79.20
2023-09-20T06:32:43.520Z,79.20
2023-09-20T06:35:12.177Z,79.10
2023-09-20T06:37:46.983Z,79.20
2023-09-20T06:40:23.380Z,79.20
2023-09-20T06:42:52.219Z,80.00
2023-09-20T06:45:22.136Z,79.30
2023-09-20T06:47:50.282Z,79.40
2023-09-20T06:50:18.601Z,79.40
2023-09-20T06:52:46.688Z,79.40
2023-09-20T06:55:15.183Z,79.50
2023-09-20T06:57:43.273Z,79.50
2023-09-20T07:00:25.838Z,79.50
2023-09-20T07:02:58.253Z,79.40
2023-09-20T07:05:29.734Z,79.40
2023-09-20T07:07:59.798Z,79.50
2023-09-20T07:10:29.142Z,79.60
2023-09-20T07:12:57.206Z,79.60
2023-09-20T07:15:26.415Z,80.20
2023-09-20T07:18:02.332Z,79.50
2023-09-20T07:20:30.914Z,79.50
2023-09-20T07:22:59.531Z,79.50
2023-09-20T07:25:29.662Z,79.40
2023-09-20T07:28:00.325Z,79.50
2023-09-20T07:30:32.828Z,79.50
2023-09-20T07:33:11.264Z,79.50
2023-09-20T07:35:48.251Z,79.50
2023-09-20T07:38:26.410Z,79.50
2023-09-20T07:40:55.186Z,79.50
2023-09-20T07:43:28.918Z,79.60
2023-09-20T07:45:57.793Z,79.60
2023-09-20T07:48:28.900Z,79.70
2023-09-20T07:50:56.825Z,79.70
2023-09-20T07:53:27.337Z,79.70
2023-09-20T07:56:01.947Z,79.70
2023-09-20T07:58:30.275Z,79.70
2023-09-20T08:00:58.448Z,79.70
2023-09-20T08:03:33.322Z,79.60
2023-09-20T08:06:01.534Z,79.70
2023-09-20T08:08:29.375Z,79.60
2023-09-20T08:11:12.548Z,79.70
2023-09-20T08:13:42.049Z,79.60
2023-09-20T08:16:11.831Z,80.30
2023-09-20T08:18:59.195Z,79.60
2023-09-20T08:21:27.996Z,79.60
2023-09-20T08:24:13.526Z,79.40
2023-09-20T08:26:59.090Z,79.50
2023-09-20T08:29:44.644Z,79.40
2023-09-20T08:32:31.642Z,79.50
2023-09-20T08:35:18.747Z,79.60
2023-09-20T08:38:04.324Z,79.60
2023-09-20T08:40:50.107Z,79.60
2023-09-20T08:43:35.547Z,79.60
2023-09-20T08:46:24.169Z,79.50
2023-09-20T08:49:10.321Z,79.60
2023-09-20T08:52:05.232Z,79.60
2023-09-20T08:54:52.839Z,79.60
2023-09-20T08:57:39.550Z,79.50
2023-09-20T09:00:21.041Z,79.50
2023-09-20T09:02:52.966Z,79.50
2023-09-20T09:05:22.771Z,79.50
2023-09-20T09:07:51.952Z,79.60
2023-09-20T09:10:20.229Z,79.50
2023-09-20T09:12:48.369Z,79.50
2023-09-20T09:15:17.963Z,79.50
2023-09-20T09:17:47.482Z,79.50
2023-09-20T09:20:17.704Z,79.50
2023-09-20T09:22:47.203Z,79.50
2023-09-20T09:25:18.157Z,79.60
2023-09-20T09:27:46.230Z,79.70
2023-09-20T09:30:16.027Z,79.60
2023-09-20T09:32:45.218Z,79.60
2023-09-20T09:35:19.000Z,79.50
2023-09-20T09:37:49.911Z,79.50
2023-09-20T09:40:19.616Z,79.50
2023-09-20T09:42:49.244Z,79.50
2023-09-20T09:45:31.667Z,79.60
2023-09-20T09:48:04.322Z,79.40
2023-09-20T09:50:39.589Z,79.50
2023-09-20T09:53:09.719Z,79.50
2023-09-20T09:55:40.421Z,79.60
2023-09-20T09:58:10.031Z,79.50
2023-09-20T10:00:40.707Z,79.40
2023-09-20T10:03:17.492Z,79.40
2023-09-20T10:05:48.076Z,79.60
2023-09-20T10:08:19.496Z,79.50
2023-09-20T10:10:48.729Z,79.60
2023-09-20T10:13:19.568Z,79.60
2023-09-20T10:15:47.664Z,79.60
2023-09-20T10:18:15.906Z,79.60
2023-09-20T10:20:59.613Z,79.60
2023-09-20T10:23:30.317Z,79.60
2023-09-20T10:26:02.501Z,79.70
2023-09-20T10:28:40.320Z,79.50
2023-09-20T10:31:10.041Z,79.40
2023-09-20T10:33:46.770Z,79.20
2023-09-20T10:36:19.612Z,79.30
2023-09-20T10:38:48.588Z,79.40
2023-09-20T10:41:18.569Z,79.50
2023-09-20T10:43:52.006Z,79.50
2023-09-20T10:46:23.702Z,79.60
2023-09-20T10:48:55.158Z,79.60
2023-09-20T10:51:42.771Z,79.60
2023-09-20T10:54:20.666Z,79.40
2023-09-20T10:57:08.979Z,79.40
2023-09-20T10:59:41.979Z,79.50
2023-09-20T11:02:14.615Z,79.30
2023-09-20T11:04:47.454Z,79.10
2023-09-20T11:07:16.699Z,79.30
2023-09-20T11:09:47.348Z,79.10
2023-09-20T11:12:16.615Z,79.10
2023-09-20T11:14:50.835Z,79.10
2023-09-20T11:17:20.318Z,79.00
2023-09-20T11:19:49.924Z,78.80
2023-09-20T11:22:19.924Z,78.60
2023-09-20T11:24:46.926Z,78.50
2023-09-20T11:27:17.150Z,78.50
2023-09-20T11:29:50.240Z,78.90
2023-09-20T11:32:25.978Z,78.70
2023-09-20T11:34:53.902Z,78.60
2023-09-20T11:37:22.828Z,78.60
2023-09-20T11:39:53.299Z,78.70
2023-09-20T11:42:30.086Z,78.70
2023-09-20T11:45:27.275Z,78.80
2023-09-20T11:47:53.860Z,78.70
2023-09-20T11:50:26.230Z,78.40
2023-09-20T11:52:55.441Z,78.60
2023-09-20T11:55:24.183Z,78.40
2023-09-20T11:57:55.143Z,78.60
2023-09-20T12:00:25.769Z,78.50
2023-09-20T12:02:58.733Z,78.40
2023-09-20T12:05:26.733Z,78.50
2023-09-20T12:07:56.656Z,78.40
2023-09-20T12:10:25.607Z,78.30
2023-09-20T12:12:55.126Z,78.20
2023-09-20T12:15:24.595Z,78.20
2023-09-20T12:17:54.825Z,78.20
2023-09-20T12:20:23.389Z,78.20
2023-09-20T12:22:51.334Z,78.20
2023-09-20T12:25:20.788Z,78.00
2023-09-20T12:27:48.814Z,77.90
2023-09-20T12:30:19.050Z,78.00
2023-09-20T12:32:47.583Z,77.90
2023-09-20T12:35:15.771Z,78.10
2023-09-20T12:37:44.093Z,78.00
2023-09-20T12:40:13.036Z,78.00
2023-09-20T12:42:41.232Z,78.00
2023-09-20T12:45:10.278Z,78.00
2023-09-20T12:47:42.105Z,78.00
2023-09-20T12:50:13.989Z,77.90
2023-09-20T12:52:43.725Z,77.80
2023-09-20T12:55:13.390Z,77.80
2023-09-20T12:57:41.741Z,77.80
2023-09-20T13:00:15.366Z,77.60
2023-09-20T13:02:48.678Z,77.80
2023-09-20T13:05:17.125Z,78.00
2023-09-20T13:07:44.917Z,77.90
2023-09-20T13:10:14.981Z,77.90
2023-09-20T13:12:43.256Z,78.10
2023-09-20T13:15:14.486Z,78.00
2023-09-20T13:17:44.659Z,78.10
2023-09-20T13:20:15.921Z,78.20
2023-09-20T13:22:44.772Z,78.30
2023-09-20T13:25:17.221Z,78.30
2023-09-20T13:27:45.563Z,78.00
2023-09-20T13:30:14.812Z,77.90
2023-09-20T13:32:43.697Z,77.90
2023-09-20T13:35:13.532Z,77.90
2023-09-20T13:37:46.425Z,77.90
2023-09-20T13:40:16.618Z,77.70
2023-09-20T13:42:45.268Z,77.70
2023-09-20T13:45:14.688Z,77.60
2023-09-20T13:47:43.494Z,77.70
2023-09-20T13:50:15.432Z,77.70
2023-09-20T13:52:44.192Z,77.70
2023-09-20T13:55:15.503Z,77.50
2023-09-20T13:57:44.533Z,77.50
2023-09-20T14:00:15.086Z,77.40
2023-09-20T14:02:43.998Z,78.10
2023-09-20T14:05:16.353Z,77.10
2023-09-20T14:07:45.475Z,77.30
2023-09-20T14:10:17.118Z,77.40
2023-09-20T14:12:45.512Z,77.40
2023-09-20T14:15:16.125Z,77.50
2023-09-20T14:17:47.716Z,77.30
2023-09-20T14:20:19.947Z,77.30
2023-09-20T14:22:51.023Z,77.30
2023-09-20T14:25:19.473Z,77.30
2023-09-20T14:27:48.074Z,77.20
2023-09-20T14:30:18.335Z,77.10
2023-09-20T14:32:47.806Z,77.20
2023-09-20T14:35:17.761Z,77.00
2023-09-20T14:37:48.735Z,77.00
2023-09-20T14:40:21.508Z,77.10
2023-09-20T14:42:53.829Z,77.10
2023-09-20T14:45:25.586Z,77.20
2023-09-20T14:47:54.768Z,77.10
2023-09-20T14:50:27.365Z,77.20
2023-09-20T14:52:55.851Z,77.20
2023-09-20T14:55:23.832Z,77.30
2023-09-20T14:57:56.114Z,77.20
2023-09-20T15:00:26.150Z,77.30
2023-09-20T15:02:56.962Z,77.20
2023-09-20T15:05:27.433Z,77.30
2023-09-20T15:07:56.546Z,78.00
2023-09-20T15:10:26.566Z,77.20
2023-09-20T15:12:59.317Z,77.20
2023-09-20T15:15:29.908Z,77.00
2023-09-20T15:17:59.536Z,77.10
2023-09-20T15:20:30.922Z,77.20
2023-09-20T15:23:00.913Z,77.20
2023-09-20T15:25:30.892Z,77.20
2023-09-20T15:28:00.025Z,77.20
2023-09-20T15:30:30.028Z,77.10
2023-09-20T15:32:58.255Z,77.10
2023-09-20T15:35:26.476Z,77.10
2023-09-20T15:37:57.621Z,77.10
2023-09-20T15:40:27.947Z,77.20
2023-09-20T15:42:57.806Z,77.20
2023-09-20T15:45:27.079Z,77.20
2023-09-20T15:47:55.048Z,77.00
2023-09-20T15:50:22.994Z,77.00
2023-09-20T15:52:50.937Z,77.00
2023-09-20T15:55:20.177Z,76.90
2023-09-20T15:57:48.074Z,77.00
2023-09-20T16:00:17.347Z,77.00
2023-09-20T16:02:46.611Z,77.00
2023-09-20T16:05:16.569Z,77.10
2023-09-20T16:07:44.899Z,77.10
2023-09-20T16:10:17.502Z,77.10
2023-09-20T16:12:48.148Z,77.20
2023-09-20T16:15:20.251Z,77.10
2023-09-20T16:17:53.606Z,77.20
2023-09-20T16:20:21.561Z,77.30
2023-09-20T16:22:49.665Z,77.30
2023-09-20T16:25:17.480Z,77.20
2023-09-20T16:27:46.816Z,77.30
2023-09-20T16:30:17.812Z,77.20
2023-09-20T16:32:46.390Z,77.20
2023-09-20T16:35:18.895Z,77.20
2023-09-20T16:37:47.900Z,77.20
2023-09-20T16:40:18.003Z,77.10
2023-09-20T16:42:50.454Z,77.20
2023-09-20T16:45:19.843Z,77.20
2023-09-20T16:47:47.718Z,77.20
2023-09-20T16:50:16.251Z,77.20
2023-09-20T16:52:44.021Z,77.20
2023-09-20T16:55:13.359Z,77.10
2023-09-20T16:57:41.439Z,77.20
2023-09-20T17:00:16.399Z,77.20
2023-09-20T17:02:44.883Z,77.30
2023-09-20T17:05:16.779Z,77.20
2023-09-20T17:07:45.082Z,77.30
2023-09-20T17:10:16.944Z,77.20
2023-09-20T17:12:45.444Z,77.10
2023-09-20T17:15:14.838Z,77.10
2023-09-20T17:17:43.532Z,77.10
2023-09-20T17:20:13.841Z,77.00
2023-09-20T17:22:42.989Z,76.90
2023-09-20T17:25:14.062Z,77.00
2023-09-20T17:27:43.799Z,77.10
2023-09-20T17:30:13.884Z,77.10
2023-09-20T17:32:46.510Z,77.20
2023-09-20T17:35:17.318Z,77.20
2023-09-20T17:37:45.597Z,77.20
2023-09-20T17:40:15.777Z,77.10
2023-09-20T17:42:44.348Z,77.20
2023-09-20T17:45:15.280Z,77.30
2023-09-20T17:47:51.203Z,77.30
2023-09-20T17:50:19.619Z,77.40
2023-09-20T17:52:52.334Z,77.30
2023-09-20T17:55:20.391Z,77.50
2023-09-20T17:57:50.502Z,77.50
2023-09-20T18:00:25.668Z,77.50
2023-09-20T18:02:58.236Z,77.60
2023-09-20T18:05:26.490Z,77.40
2023-09-20T18:07:54.496Z,77.50
2023-09-20T18:10:25.424Z,77.40
2023-09-20T18:12:53.896Z,77.50
2023-09-20T18:15:21.969Z,77.50
2023-09-20T18:17:50.108Z,77.60
2023-09-20T18:20:21.047Z,77.50
2023-09-20T18:22:49.242Z,77.60
2023-09-20T18:25:18.169Z,77.50
2023-09-20T18:27:45.983Z,77.50
2023-09-20T18:30:15.753Z,77.60
2023-09-20T18:32:43.650Z,77.60
2023-09-20T18:35:12.294Z,77.70
2023-09-20T18:37:42.520Z,77.80
2023-09-20T18:40:11.088Z,77.70
2023-09-20T18:42:39.045Z,77.80
2023-09-20T18:45:07.949Z,77.80
2023-09-20T18:47:43.735Z,77.80
2023-09-20T18:50:14.439Z,77.90
2023-09-20T18:52:47.256Z,78.00
2023-09-20T18:55:17.178Z,78.10
2023-09-20T18:57:51.851Z,78.10
2023-09-20T19:00:20.982Z,78.10
2023-09-20T19:02:49.359Z,78.10
2023-09-20T19:05:18.093Z,78.10
2023-09-20T19:07:48.314Z,78.10
2023-09-20T19:10:17.199Z,78.00
2023-09-20T19:12:45.999Z,78.00
2023-09-20T19:15:15.274Z,78.00
2023-09-20T19:17:44.461Z,78.00
2023-09-20T19:20:14.730Z,78.00
2023-09-20T19:22:45.176Z,78.10
2023-09-20T19:25:18.613Z,78.10
2023-09-20T19:27:48.417Z,78.00
2023-09-20T19:30:19.689Z,78.10
2023-09-20T19:32:48.501Z,78.00
2023-09-20T19:35:18.243Z,77.90
2023-09-20T19:37:46.589Z,77.90
2023-09-20T19:40:20.830Z,77.80
2023-09-20T19:42:51.864Z,77.70
2023-09-20T19:45:20.753Z,77.70
2023-09-20T19:47:48.974Z,77.80
2023-09-20T19:50:18.576Z,77.70
2023-09-20T19:52:48.680Z,77.70
2023-09-20T19:55:25.725Z,77.70
2023-09-20T19:57:54.501Z,77.70
2023-09-20T20:00:25.845Z,77.70
2023-09-20T20:02:54.345Z,77.60
2023-09-20T20:05:24.848Z,77.60
2023-09-20T20:07:54.673Z,77.60
2023-09-20T20:10:25.444Z,77.70
2023-09-20T20:12:53.259Z,77.60
2023-09-20T20:15:23.607Z,77.70
2023-09-20T20:17:55.978Z,77.70
2023-09-20T20:20:28.438Z,77.70
2023-09-20T20:22:56.759Z,77.70
2023-09-20T20:25:28.454Z,77.60
2023-09-20T20:27:59.503Z,77.80
2023-09-20T20:30:30.679Z,77.60
2023-09-20T20:32:59.267Z,77.70
2023-09-20T20:35:27.931Z,77.60
2023-09-20T20:37:57.054Z,77.60
2023-09-20T20:40:26.937Z,77.70
2023-09-20T20:42:55.606Z,77.70
2023-09-20T20:45:24.033Z,77.80
2023-09-20T20:47:55.317Z,77.80
2023-09-20T20:50:29.873Z,77.80
2023-09-20T20:53:00.059Z,77.80
2023-09-20T20:55:31.294Z,77.80
2023-09-20T20:58:01.806Z,77.90
2023-09-20T21:00:31.149Z,77.80
2023-09-20T21:03:02.572Z,77.80
2023-09-20T21:05:32.692Z,77.90
2023-09-20T21:08:03.554Z,77.90
2023-09-20T21:10:33.289Z,77.90
2023-09-20T21:13:14.082Z,78.00
2023-09-20T21:15:46.094Z,78.10
2023-09-20T21:18:17.751Z,78.10
2023-09-20T21:20:50.632Z,78.00
2023-09-20T21:23:19.019Z,78.10
2023-09-20T21:25:49.293Z,78.10
2023-09-20T21:28:17.429Z,78.10
2023-09-20T21:30:47.958Z,78.00
2023-09-20T21:33:16.177Z,78.10
2023-09-20T21:35:44.748Z,78.10
2023-09-20T21:38:13.475Z,78.10
2023-09-20T21:40:42.306Z,78.10
2023-09-20T21:43:11.643Z,78.00
2023-09-20T21:45:39.884Z,78.00
2023-09-20T21:48:08.975Z,78.10
2023-09-20T21:50:37.132Z,78.00
2023-09-20T21:53:05.948Z,77.90
2023-09-20T21:55:34.608Z,78.00
2023-09-20T21:58:02.595Z,77.90
2023-09-20T22:00:32.068Z,78.00
2023-09-20T22:03:03.824Z,78.00
2023-09-20T22:05:33.186Z,78.00
2023-09-20T22:08:03.819Z,78.10
2023-09-20T22:10:39.335Z,78.00
2023-09-20T22:13:09.401Z,78.10
2023-09-20T22:15:41.281Z,78.00
2023-09-20T22:18:19.150Z,78.20
2023-09-20T22:20:51.453Z,78.10
2023-09-20T22:23:20.571Z,78.20
2023-09-20T22:25:49.141Z,78.10
2023-09-20T22:28:19.403Z,78.20
2023-09-20T22:30:49.372Z,78.30
2023-09-20T22:33:18.715Z,78.30
2023-09-20T22:35:56.763Z,78.10
2023-09-20T22:38:32.628Z,78.10
2023-09-20T22:41:01.351Z,78.10
2023-09-20T22:43:29.174Z,78.10
2023-09-20T22:45:58.635Z,78.10
2023-09-20T22:48:29.011Z,78.10
2023-09-20T22:50:57.679Z,78.10
2023-09-20T22:53:25.702Z,78.10
2023-09-20T22:55:53.861Z,78.20
2023-09-20T22:58:21.920Z,78.20
2023-09-20T23:00:51.966Z,78.10
2023-09-20T23:03:23.055Z,78.10
2023-09-20T23:05:52.020Z,78.20
2023-09-20T23:08:20.671Z,78.00
2023-09-20T23:10:53.145Z,78.10
2023-09-20T23:13:26.170Z,78.10
2023-09-20T23:15:55.285Z,78.20
2023-09-20T23:18:29.227Z,78.80
2023-09-20T23:20:58.572Z,78.00
2023-09-20T23:23:27.566Z,78.00
2023-09-20T23:26:00.329Z,78.10
2023-09-20T23:28:28.434Z,78.10
2023-09-20T23:30:59.178Z,78.10
2023-09-20T23:33:36.581Z,78.10
2023-09-20T23:36:06.228Z,78.10
2023-09-20T23:38:39.864Z,78.10
2023-09-20T23:41:16.077Z,78.00
2023-09-20T23:43:45.198Z,78.30
2023-09-20T23:46:14.726Z,78.10
2023-09-20T23:48:45.201Z,78.10
2023-09-20T23:51:13.798Z,78.20
2023-09-20T23:53:43.933Z,78.20
2023-09-20T23:56:13.233Z,78.10
2023-09-20T23:58:42.368Z,78.20
